Terminal Aerodrome Forecast
Issued by NWS Louisville, KY

Home | Current Version | Previous Version | Text Only | Print | Product List | Glossary On
Versions: 1 2 3 4 5 6 7 8 9 10 11 12 13 14 15 16 17 18
000
FTUS43 KLMK 292300
TAFSDF
TAF
KSDF 292329Z 3000/3106 30012G20KT P6SM VCSH BKN018
     FM300600 32012KT P6SM SCT015 BKN025
     FM301700 34009KT P6SM BKN035=

USA.gov is the U.S. government's official web portal to all federal, state and local government web resources and services.